sensor_id;sensor_type;location;lat;lon;timestamp;pressure;altitude;pressure_sealevel;temperature;humidity
63405;BME280;49541;57.840;12.306;2023-07-28T00:04:07;99488.78;;;13.54;79.37
63405;BME280;49541;57.840;12.306;2023-07-28T00:09:09;99483.28;;;13.24;76.77
63405;BME280;49541;57.840;12.306;2023-07-28T00:14:10;99489.41;;;13.01;78.77
63405;BME280;49541;57.840;12.306;2023-07-28T00:19:10;99484.72;;;13.03;78.71
63405;BME280;49541;57.840;12.306;2023-07-28T00:24:10;99485.16;;;12.44;81.92
63405;BME280;49541;57.840;12.306;2023-07-28T00:29:10;99487.78;;;12.92;79.04
63405;BME280;49541;57.840;12.306;2023-07-28T00:34:11;99495.28;;;12.57;80.04
63405;BME280;49541;57.840;12.306;2023-07-28T00:39:11;99494.75;;;11.98;82.77
63405;BME280;49541;57.840;12.306;2023-07-28T00:44:11;99498.56;;;11.62;84.38
63405;BME280;49541;57.840;12.306;2023-07-28T00:49:11;99492.41;;;12.03;83.07
63405;BME280;49541;57.840;12.306;2023-07-28T00:54:11;99494.94;;;11.96;84.08
63405;BME280;49541;57.840;12.306;2023-07-28T00:59:12;99489.72;;;11.70;84.87
63405;BME280;49541;57.840;12.306;2023-07-28T01:04:12;99493.06;;;11.47;86.40
63405;BME280;49541;57.840;12.306;2023-07-28T01:09:13;99491.25;;;11.64;86.30
63405;BME280;49541;57.840;12.306;2023-07-28T01:14:16;99493.06;;;11.80;85.40
63405;BME280;49541;57.840;12.306;2023-07-28T01:19:16;99484.41;;;11.86;84.50
63405;BME280;49541;57.840;12.306;2023-07-28T01:24:28;99481.06;;;11.60;85.71
63405;BME280;49541;57.840;12.306;2023-07-28T01:29:29;99492.50;;;11.11;88.30
63405;BME280;49541;57.840;12.306;2023-07-28T01:34:30;99500.63;;;10.93;89.79
63405;BME280;49541;57.840;12.306;2023-07-28T01:39:31;99500.81;;;11.16;90.04
63405;BME280;49541;57.840;12.306;2023-07-28T01:44:31;99501.72;;;11.41;88.57
63405;BME280;49541;57.840;12.306;2023-07-28T01:49:31;99495.56;;;11.65;88.01
63405;BME280;49541;57.840;12.306;2023-07-28T01:54:31;99487.09;;;12.03;84.29
63405;BME280;49541;57.840;12.306;2023-07-28T01:59:31;99495.44;;;11.92;85.02
63405;BME280;49541;57.840;12.306;2023-07-28T02:04:31;99492.72;;;11.67;85.74
63405;BME280;49541;57.840;12.306;2023-07-28T02:09:32;99501.38;;;11.36;86.92
63405;BME280;49541;57.840;12.306;2023-07-28T02:14:32;99503.78;;;11.05;87.93
63405;BME280;49541;57.840;12.306;2023-07-28T02:19:32;99504.97;;;11.02;88.63
63405;BME280;49541;57.840;12.306;2023-07-28T02:24:32;99505.88;;;10.77;88.92
63405;BME280;49541;57.840;12.306;2023-07-28T02:29:32;99517.66;;;11.17;90.50
63405;BME280;49541;57.840;12.306;2023-07-28T02:34:33;99496.84;;;11.28;87.00
63405;BME280;49541;57.840;12.306;2023-07-28T02:39:33;99505.16;;;11.09;88.14
63405;BME280;49541;57.840;12.306;2023-07-28T02:44:33;99496.03;;;11.28;85.57
63405;BME280;49541;57.840;12.306;2023-07-28T02:49:33;99506.22;;;11.41;84.80
63405;BME280;49541;57.840;12.306;2023-07-28T02:54:33;99505.53;;;11.39;85.12
63405;BME280;49541;57.840;12.306;2023-07-28T02:59:34;99513.03;;;11.43;85.50
63405;BME280;49541;57.840;12.306;2023-07-28T03:04:34;99512.81;;;11.20;87.09
63405;BME280;49541;57.840;12.306;2023-07-28T03:09:34;99521.47;;;11.06;89.35
63405;BME280;49541;57.840;12.306;2023-07-28T03:14:34;99516.22;;;10.88;88.32
63405;BME280;49541;57.840;12.306;2023-07-28T03:19:35;99526.00;;;10.71;90.18
63405;BME280;49541;57.840;12.306;2023-07-28T03:24:35;99526.50;;;11.25;87.58
63405;BME280;49541;57.840;12.306;2023-07-28T03:29:35;99525.41;;;11.69;84.21
63405;BME280;49541;57.840;12.306;2023-07-28T03:34:35;99516.22;;;12.04;80.64
63405;BME280;49541;57.840;12.306;2023-07-28T03:39:35;99519.38;;;11.34;83.75
63405;BME280;49541;57.840;12.306;2023-07-28T03:44:35;99518.53;;;11.50;83.74
63405;BME280;49541;57.840;12.306;2023-07-28T03:49:37;99522.38;;;11.80;81.07
63405;BME280;49541;57.840;12.306;2023-07-28T03:54:37;99512.75;;;11.96;80.57
63405;BME280;49541;57.840;12.306;2023-07-28T03:59:38;99528.38;;;11.82;81.07
63405;BME280;49541;57.840;12.306;2023-07-28T04:04:38;99529.00;;;11.19;83.70
63405;BME280;49541;57.840;12.306;2023-07-28T04:09:38;99526.91;;;11.55;82.84
63405;BME280;49541;57.840;12.306;2023-07-28T04:14:38;99526.69;;;11.32;84.57
63405;BME280;49541;57.840;12.306;2023-07-28T04:19:38;99527.34;;;11.34;85.47
63405;BME280;49541;57.840;12.306;2023-07-28T04:24:38;99526.38;;;11.52;84.73
63405;BME280;49541;57.840;12.306;2023-07-28T04:29:39;99534.88;;;11.63;85.57
63405;BME280;49541;57.840;12.306;2023-07-28T04:34:39;99528.38;;;11.74;84.64
63405;BME280;49541;57.840;12.306;2023-07-28T04:39:39;99535.19;;;11.52;86.25
63405;BME280;49541;57.840;12.306;2023-07-28T04:44:39;99535.81;;;11.21;89.04
63405;BME280;49541;57.840;12.306;2023-07-28T04:49:40;99543.00;;;11.37;90.22
63405;BME280;49541;57.840;12.306;2023-07-28T04:54:40;99551.41;;;11.75;90.06
63405;BME280;49541;57.840;12.306;2023-07-28T04:59:40;99543.41;;;12.33;89.54
63405;BME280;49541;57.840;12.306;2023-07-28T05:04:42;99542.31;;;12.58;88.23
63405;BME280;49541;57.840;12.306;2023-07-28T05:09:42;99530.72;;;13.22;86.24
63405;BME280;49541;57.840;12.306;2023-07-28T05:14:42;99535.03;;;12.91;88.20
63405;BME280;49541;57.840;12.306;2023-07-28T05:19:42;99540.13;;;13.09;87.82
63405;BME280;49541;57.840;12.306;2023-07-28T05:24:43;99544.56;;;13.57;87.88
63405;BME280;49541;57.840;12.306;2023-07-28T05:29:44;99532.66;;;14.05;85.47
63405;BME280;49541;57.840;12.306;2023-07-28T05:34:44;99531.28;;;14.09;85.84
63405;BME280;49541;57.840;12.306;2023-07-28T05:39:48;99535.66;;;13.64;87.67
63405;BME280;49541;57.840;12.306;2023-07-28T05:44:49;99532.22;;;13.56;88.42
63405;BME280;49541;57.840;12.306;2023-07-28T05:49:49;99527.72;;;14.47;88.14
63405;BME280;49541;57.840;12.306;2023-07-28T05:54:49;99531.97;;;14.26;87.29
63405;BME280;49541;57.840;12.306;2023-07-28T05:59:49;99537.31;;;15.15;87.30
63405;BME280;49541;57.840;12.306;2023-07-28T06:04:49;99538.00;;;15.39;85.04
63405;BME280;49541;57.840;12.306;2023-07-28T06:09:49;99535.38;;;15.82;83.48
63405;BME280;49541;57.840;12.306;2023-07-28T06:14:50;99530.28;;;16.44;80.52
63405;BME280;49541;57.840;12.306;2023-07-28T06:19:50;99531.28;;;16.43;80.60
63405;BME280;49541;57.840;12.306;2023-07-28T06:24:51;99520.91;;;17.09;78.01
63405;BME280;49541;57.840;12.306;2023-07-28T06:29:51;99542.50;;;17.29;76.59
63405;BME280;49541;57.840;12.306;2023-07-28T06:34:51;99548.09;;;16.86;78.47
63405;BME280;49541;57.840;12.306;2023-07-28T06:39:52;99543.56;;;17.42;75.33
63405;BME280;49541;57.840;12.306;2023-07-28T06:44:52;99542.22;;;17.11;76.95
63405;BME280;49541;57.840;12.306;2023-07-28T06:49:52;99542.75;;;16.58;77.95
63405;BME280;49541;57.840;12.306;2023-07-28T06:54:52;99543.59;;;16.58;80.20
63405;BME280;49541;57.840;12.306;2023-07-28T06:59:54;99535.66;;;17.27;78.10
63405;BME280;49541;57.840;12.306;2023-07-28T07:04:54;99547.22;;;17.95;73.25
63405;BME280;49541;57.840;12.306;2023-07-28T07:09:54;99539.09;;;18.55;71.27
63405;BME280;49541;57.840;12.306;2023-07-28T07:14:55;99539.88;;;18.76;68.36
63405;BME280;49541;57.840;12.306;2023-07-28T07:19:55;99543.66;;;19.27;67.00
63405;BME280;49541;57.840;12.306;2023-07-28T07:24:55;99552.03;;;19.05;66.16
63405;BME280;49541;57.840;12.306;2023-07-28T07:29:56;99544.88;;;18.79;68.79
63405;BME280;49541;57.840;12.306;2023-07-28T07:34:56;99554.41;;;19.33;67.60
63405;BME280;49541;57.840;12.306;2023-07-28T07:39:57;99565.13;;;19.53;65.51
63405;BME280;49541;57.840;12.306;2023-07-28T07:44:57;99571.25;;;19.74;63.96
63405;BME280;49541;57.840;12.306;2023-07-28T07:49:57;99566.41;;;19.44;63.86
63405;BME280;49541;57.840;12.306;2023-07-28T07:54:58;99570.44;;;19.28;65.48
63405;BME280;49541;57.840;12.306;2023-07-28T07:59:58;99572.84;;;19.43;64.85
63405;BME280;49541;57.840;12.306;2023-07-28T08:04:58;99570.19;;;20.07;63.01
63405;BME280;49541;57.840;12.306;2023-07-28T08:09:59;99575.66;;;20.25;61.89
63405;BME280;49541;57.840;12.306;2023-07-28T08:14:59;99576.69;;;20.24;59.97
63405;BME280;49541;57.840;12.306;2023-07-28T08:19:59;99579.41;;;19.99;59.46
63405;BME280;49541;57.840;12.306;2023-07-28T08:24:59;99575.78;;;19.80;58.53
63405;BME280;49541;57.840;12.306;2023-07-28T08:29:59;99583.53;;;19.70;58.20
63405;BME280;49541;57.840;12.306;2023-07-28T08:35:00;99577.09;;;19.64;59.29
63405;BME280;49541;57.840;12.306;2023-07-28T08:40:00;99590.16;;;20.05;59.15
63405;BME280;49541;57.840;12.306;2023-07-28T08:45:00;99583.22;;;20.85;56.59
63405;BME280;49541;57.840;12.306;2023-07-28T08:50:00;99588.09;;;20.95;53.04
63405;BME280;49541;57.840;12.306;2023-07-28T08:55:01;99588.25;;;21.18;51.92
63405;BME280;49541;57.840;12.306;2023-07-28T09:00:08;99588.84;;;20.65;55.36
63405;BME280;49541;57.840;12.306;2023-07-28T09:05:21;99586.41;;;20.57;55.80
63405;BME280;49541;57.840;12.306;2023-07-28T09:10:24;99583.84;;;20.87;54.28
63405;BME280;49541;57.840;12.306;2023-07-28T09:15:24;99586.53;;;20.87;53.40
63405;BME280;49541;57.840;12.306;2023-07-28T09:20:25;99592.00;;;21.54;51.45
63405;BME280;49541;57.840;12.306;2023-07-28T09:25:33;99594.19;;;21.64;52.38
63405;BME280;49541;57.840;12.306;2023-07-28T09:30:47;99594.03;;;22.55;49.08
63405;BME280;49541;57.840;12.306;2023-07-28T09:35:48;99602.91;;;21.47;52.23
63405;BME280;49541;57.840;12.306;2023-07-28T09:40:48;99597.44;;;20.80;55.50
63405;BME280;49541;57.840;12.306;2023-07-28T09:45:48;99601.78;;;21.00;52.75
63405;BME280;49541;57.840;12.306;2023-07-28T09:50:49;99594.59;;;21.79;49.79
63405;BME280;49541;57.840;12.306;2023-07-28T09:55:49;99601.81;;;22.51;46.62
63405;BME280;49541;57.840;12.306;2023-07-28T10:00:51;99599.56;;;23.07;47.41
63405;BME280;49541;57.840;12.306;2023-07-28T10:05:51;99603.41;;;23.63;44.71
63405;BME280;49541;57.840;12.306;2023-07-28T10:10:52;99606.69;;;23.37;45.00
63405;BME280;49541;57.840;12.306;2023-07-28T10:15:52;99606.06;;;23.06;45.00
63405;BME280;49541;57.840;12.306;2023-07-28T10:20:53;99600.88;;;23.74;43.55
63405;BME280;49541;57.840;12.306;2023-07-28T10:25:56;99612.22;;;23.82;42.04
63405;BME280;49541;57.840;12.306;2023-07-28T10:30:58;99605.63;;;23.78;42.73
63405;BME280;49541;57.840;12.306;2023-07-28T10:35:59;99603.19;;;22.30;45.90
63405;BME280;49541;57.840;12.306;2023-07-28T10:41:11;99596.84;;;22.60;45.88
63405;BME280;49541;57.840;12.306;2023-07-28T10:46:14;99598.91;;;23.28;45.43
63405;BME280;49541;57.840;12.306;2023-07-28T10:51:21;99587.91;;;23.76;44.48
63405;BME280;49541;57.840;12.306;2023-07-28T10:56:23;99589.84;;;23.92;44.24
63405;BME280;49541;57.840;12.306;2023-07-28T11:01:30;99598.78;;;24.94;41.26
63405;BME280;49541;57.840;12.306;2023-07-28T11:06:30;99601.75;;;25.81;40.38
63405;BME280;49541;57.840;12.306;2023-07-28T11:11:30;99586.00;;;23.76;43.71
63405;BME280;49541;57.840;12.306;2023-07-28T11:16:32;99587.88;;;24.04;43.76
63405;BME280;49541;57.840;12.306;2023-07-28T11:21:36;99588.53;;;24.11;43.11
63405;BME280;49541;57.840;12.306;2023-07-28T11:26:37;99588.44;;;24.06;42.05
63405;BME280;49541;57.840;12.306;2023-07-28T11:31:38;99587.84;;;24.89;42.85
63405;BME280;49541;57.840;12.306;2023-07-28T11:36:40;99589.91;;;24.82;40.59
63405;BME280;49541;57.840;12.306;2023-07-28T11:41:41;99582.16;;;24.73;41.06
63405;BME280;49541;57.840;12.306;2023-07-28T11:46:42;99579.44;;;24.73;41.11
63405;BME280;49541;57.840;12.306;2023-07-28T11:51:46;99581.47;;;24.27;41.88
63405;BME280;49541;57.840;12.306;2023-07-28T11:56:48;99579.97;;;24.53;42.10
63405;BME280;49541;57.840;12.306;2023-07-28T12:01:52;99605.38;;;24.59;40.40
63405;BME280;49541;57.840;12.306;2023-07-28T12:07:13;99595.63;;;24.12;42.34
63405;BME280;49541;57.840;12.306;2023-07-28T12:12:16;99601.97;;;24.69;42.34
63405;BME280;49541;57.840;12.306;2023-07-28T12:17:17;99609.56;;;24.33;42.26
63405;BME280;49541;57.840;12.306;2023-07-28T12:22:18;99606.34;;;24.70;42.18
63405;BME280;49541;57.840;12.306;2023-07-28T12:27:18;99608.88;;;24.09;43.63
63405;BME280;49541;57.840;12.306;2023-07-28T12:32:20;99613.41;;;24.03;43.56
63405;BME280;49541;57.840;12.306;2023-07-28T12:37:20;99609.75;;;23.98;44.07
63405;BME280;49541;57.840;12.306;2023-07-28T12:42:21;99608.34;;;24.58;41.80
63405;BME280;49541;57.840;12.306;2023-07-28T12:47:21;99617.50;;;24.90;42.86
63405;BME280;49541;57.840;12.306;2023-07-28T12:52:21;99611.84;;;24.41;42.23
63405;BME280;49541;57.840;12.306;2023-07-28T12:57:22;99617.50;;;24.90;41.37
63405;BME280;49541;57.840;12.306;2023-07-28T13:02:22;99614.59;;;24.24;43.11
63405;BME280;49541;57.840;12.306;2023-07-28T13:07:22;99628.75;;;25.16;40.93
63405;BME280;49541;57.840;12.306;2023-07-28T13:12:23;99620.34;;;24.28;41.66
63405;BME280;49541;57.840;12.306;2023-07-28T13:17:23;99614.88;;;23.94;41.68
63405;BME280;49541;57.840;12.306;2023-07-28T13:22:23;99619.03;;;23.56;41.63
63405;BME280;49541;57.840;12.306;2023-07-28T13:27:24;99621.28;;;23.88;41.67
63405;BME280;49541;57.840;12.306;2023-07-28T13:32:24;99625.31;;;23.74;42.04
63405;BME280;49541;57.840;12.306;2023-07-28T13:37:25;99625.38;;;23.09;43.35
63405;BME280;49541;57.840;12.306;2023-07-28T13:42:25;99632.53;;;24.25;41.96
63405;BME280;49541;57.840;12.306;2023-07-28T13:47:25;99625.19;;;24.26;41.69
63405;BME280;49541;57.840;12.306;2023-07-28T13:52:25;99627.38;;;23.95;42.31
63405;BME280;49541;57.840;12.306;2023-07-28T13:57:26;99639.34;;;24.11;38.77
63405;BME280;49541;57.840;12.306;2023-07-28T14:02:26;99646.94;;;24.55;37.97
63405;BME280;49541;57.840;12.306;2023-07-28T14:07:26;99649.41;;;24.95;39.44
63405;BME280;49541;57.840;12.306;2023-07-28T14:12:26;99651.91;;;25.19;38.86
63405;BME280;49541;57.840;12.306;2023-07-28T14:17:26;99651.81;;;24.24;41.75
63405;BME280;49541;57.840;12.306;2023-07-28T14:22:27;99661.50;;;24.48;41.35
63405;BME280;49541;57.840;12.306;2023-07-28T14:27:27;99667.03;;;24.53;41.10
63405;BME280;49541;57.840;12.306;2023-07-28T14:32:28;99673.91;;;24.44;39.11
63405;BME280;49541;57.840;12.306;2023-07-28T14:37:28;99662.69;;;25.47;39.54
63405;BME280;49541;57.840;12.306;2023-07-28T14:42:28;99675.03;;;25.16;39.74
63405;BME280;49541;57.840;12.306;2023-07-28T14:47:28;99661.81;;;24.52;42.07
63405;BME280;49541;57.840;12.306;2023-07-28T14:52:29;99680.38;;;24.89;39.63
63405;BME280;49541;57.840;12.306;2023-07-28T14:57:29;99665.81;;;24.16;42.91
63405;BME280;49541;57.840;12.306;2023-07-28T15:02:29;99658.41;;;24.45;42.46
63405;BME280;49541;57.840;12.306;2023-07-28T15:07:29;99667.41;;;24.45;41.86
63405;BME280;49541;57.840;12.306;2023-07-28T15:12:29;99674.69;;;24.57;43.56
63405;BME280;49541;57.840;12.306;2023-07-28T15:17:29;99674.44;;;24.58;44.66
63405;BME280;49541;57.840;12.306;2023-07-28T15:22:30;99676.78;;;25.44;42.49
63405;BME280;49541;57.840;12.306;2023-07-28T15:27:32;99663.94;;;25.40;40.52
63405;BME280;49541;57.840;12.306;2023-07-28T15:32:33;99678.94;;;24.86;40.24
63405;BME280;49541;57.840;12.306;2023-07-28T15:37:33;99673.53;;;24.07;40.26
63405;BME280;49541;57.840;12.306;2023-07-28T15:42:33;99687.91;;;25.21;40.40
63405;BME280;49541;57.840;12.306;2023-07-28T15:47:33;99678.25;;;25.30;40.18
63405;BME280;49541;57.840;12.306;2023-07-28T15:52:35;99679.22;;;24.68;40.10
63405;BME280;49541;57.840;12.306;2023-07-28T15:57:36;99696.56;;;25.18;39.57
63405;BME280;49541;57.840;12.306;2023-07-28T16:02:36;99688.19;;;24.06;41.51
63405;BME280;49541;57.840;12.306;2023-07-28T16:07:36;99693.22;;;23.85;40.71
63405;BME280;49541;57.840;12.306;2023-07-28T16:12:37;99682.69;;;23.48;40.61
63405;BME280;49541;57.840;12.306;2023-07-28T16:17:37;99684.16;;;24.88;40.07
63405;BME280;49541;57.840;12.306;2023-07-28T16:22:37;99678.59;;;23.86;41.39
63405;BME280;49541;57.840;12.306;2023-07-28T16:27:38;99681.53;;;23.21;41.87
63405;BME280;49541;57.840;12.306;2023-07-28T16:32:38;99682.66;;;22.54;46.32
63405;BME280;49541;57.840;12.306;2023-07-28T16:37:39;99680.50;;;23.10;44.33
63405;BME280;49541;57.840;12.306;2023-07-28T16:42:39;99679.09;;;23.19;46.16
63405;BME280;49541;57.840;12.306;2023-07-28T16:47:40;99682.34;;;22.51;48.37
63405;BME280;49541;57.840;12.306;2023-07-28T16:52:40;99676.69;;;22.22;50.41
63405;BME280;49541;57.840;12.306;2023-07-28T16:57:40;99681.56;;;22.01;51.15
63405;BME280;49541;57.840;12.306;2023-07-28T17:02:40;99686.41;;;21.99;52.73
63405;BME280;49541;57.840;12.306;2023-07-28T17:07:40;99678.97;;;21.76;52.95
63405;BME280;49541;57.840;12.306;2023-07-28T17:12:42;99681.78;;;21.33;53.98
63405;BME280;49541;57.840;12.306;2023-07-28T17:17:42;99677.34;;;21.20;55.43
63405;BME280;49541;57.840;12.306;2023-07-28T17:22:42;99691.88;;;21.00;56.12
63405;BME280;49541;57.840;12.306;2023-07-28T17:27:42;99691.56;;;21.71;54.31
63405;BME280;49541;57.840;12.306;2023-07-28T17:32:43;99699.50;;;21.28;56.45
63405;BME280;49541;57.840;12.306;2023-07-28T17:37:45;99705.25;;;21.57;56.50
63405;BME280;49541;57.840;12.306;2023-07-28T17:42:46;99698.00;;;21.33;57.79
63405;BME280;49541;57.840;12.306;2023-07-28T17:47:47;99697.59;;;21.73;56.30
63405;BME280;49541;57.840;12.306;2023-07-28T17:52:47;99699.72;;;21.27;55.98
63405;BME280;49541;57.840;12.306;2023-07-28T17:57:49;99707.78;;;21.34;56.07
63405;BME280;49541;57.840;12.306;2023-07-28T18:02:49;99699.81;;;21.20;56.89
63405;BME280;49541;57.840;12.306;2023-07-28T18:07:50;99700.63;;;21.02;57.42
63405;BME280;49541;57.840;12.306;2023-07-28T18:12:50;99705.75;;;20.85;57.37
63405;BME280;49541;57.840;12.306;2023-07-28T18:17:50;99707.75;;;20.08;59.73
63405;BME280;49541;57.840;12.306;2023-07-28T18:22:50;99711.53;;;20.00;61.07
63405;BME280;49541;57.840;12.306;2023-07-28T18:27:51;99710.16;;;20.23;61.01
63405;BME280;49541;57.840;12.306;2023-07-28T18:32:51;99710.22;;;20.10;61.88
63405;BME280;49541;57.840;12.306;2023-07-28T18:37:51;99698.06;;;19.87;63.18
63405;BME280;49541;57.840;12.306;2023-07-28T18:42:51;99703.13;;;19.77;63.80
63405;BME280;49541;57.840;12.306;2023-07-28T18:47:51;99715.38;;;19.79;63.03
63405;BME280;49541;57.840;12.306;2023-07-28T18:52:51;99710.13;;;18.93;65.03
63405;BME280;49541;57.840;12.306;2023-07-28T18:57:52;99710.94;;;18.53;66.53
63405;BME280;49541;57.840;12.306;2023-07-28T19:02:52;99711.38;;;18.44;66.52
63405;BME280;49541;57.840;12.306;2023-07-28T19:07:54;99710.91;;;18.27;65.83
63405;BME280;49541;57.840;12.306;2023-07-28T19:12:55;99714.56;;;17.92;66.54
63405;BME280;49541;57.840;12.306;2023-07-28T19:17:55;99711.25;;;17.97;66.92
63405;BME280;49541;57.840;12.306;2023-07-28T19:22:55;99714.00;;;18.24;66.03
63405;BME280;49541;57.840;12.306;2023-07-28T19:27:55;99722.94;;;18.31;66.16
63405;BME280;49541;57.840;12.306;2023-07-28T19:32:56;99718.22;;;18.66;64.30
63405;BME280;49541;57.840;12.306;2023-07-28T19:37:56;99709.94;;;18.54;65.44
63405;BME280;49541;57.840;12.306;2023-07-28T19:42:56;99708.09;;;19.01;64.70
63405;BME280;49541;57.840;12.306;2023-07-28T19:47:56;99717.59;;;18.77;65.36
63405;BME280;49541;57.840;12.306;2023-07-28T19:52:56;99719.47;;;18.83;65.67
63405;BME280;49541;57.840;12.306;2023-07-28T19:57:57;99726.53;;;19.05;64.79
63405;BME280;49541;57.840;12.306;2023-07-28T20:02:57;99725.91;;;18.69;66.25
63405;BME280;49541;57.840;12.306;2023-07-28T20:07:57;99721.75;;;19.13;65.97
63405;BME280;49541;57.840;12.306;2023-07-28T20:12:58;99734.81;;;18.96;67.09
63405;BME280;49541;57.840;12.306;2023-07-28T20:17:58;99737.50;;;18.76;67.68
63405;BME280;49541;57.840;12.306;2023-07-28T20:22:58;99742.78;;;18.10;69.95
63405;BME280;49541;57.840;12.306;2023-07-28T20:27:59;99742.78;;;18.10;70.30
63405;BME280;49541;57.840;12.306;2023-07-28T20:32:59;99747.84;;;18.39;69.21
63405;BME280;49541;57.840;12.306;2023-07-28T20:38:00;99748.28;;;18.70;67.38
63405;BME280;49541;57.840;12.306;2023-07-28T20:43:01;99751.72;;;18.24;69.29
63405;BME280;49541;57.840;12.306;2023-07-28T20:48:01;99752.81;;;18.49;67.74
63405;BME280;49541;57.840;12.306;2023-07-28T20:53:01;99760.00;;;17.74;70.73
63405;BME280;49541;57.840;12.306;2023-07-28T20:58:01;99754.56;;;17.60;71.79
63405;BME280;49541;57.840;12.306;2023-07-28T21:03:02;99757.81;;;17.84;69.61
63405;BME280;49541;57.840;12.306;2023-07-28T21:08:02;99750.50;;;17.78;69.37
63405;BME280;49541;57.840;12.306;2023-07-28T21:13:06;99744.00;;;17.66;69.44
63405;BME280;49541;57.840;12.306;2023-07-28T21:18:14;99743.91;;;17.11;71.00
63405;BME280;49541;57.840;12.306;2023-07-28T21:23:17;99734.25;;;16.95;72.16
63405;BME280;49541;57.840;12.306;2023-07-28T21:28:17;99734.84;;;17.18;71.31
63405;BME280;49541;57.840;12.306;2023-07-28T21:33:17;99729.88;;;17.15;71.36
63405;BME280;49541;57.840;12.306;2023-07-28T21:38:17;99737.34;;;17.20;70.11
63405;BME280;49541;57.840;12.306;2023-07-28T21:43:17;99733.75;;;17.41;71.21
63405;BME280;49541;57.840;12.306;2023-07-28T21:48:18;99735.97;;;17.03;72.48
63405;BME280;49541;57.840;12.306;2023-07-28T21:53:18;99736.28;;;17.14;71.80
63405;BME280;49541;57.840;12.306;2023-07-28T21:58:18;99735.28;;;16.72;73.48
63405;BME280;49541;57.840;12.306;2023-07-28T22:03:18;99735.44;;;16.43;74.26
63405;BME280;49541;57.840;12.306;2023-07-28T22:08:18;99744.94;;;16.45;74.83
63405;BME280;49541;57.840;12.306;2023-07-28T22:13:19;99746.03;;;16.29;74.71
63405;BME280;49541;57.840;12.306;2023-07-28T22:18:19;99749.66;;;16.22;75.16
63405;BME280;49541;57.840;12.306;2023-07-28T22:23:20;99752.16;;;16.23;74.97
63405;BME280;49541;57.840;12.306;2023-07-28T22:28:20;99746.16;;;16.43;74.77
63405;BME280;49541;57.840;12.306;2023-07-28T22:33:20;99752.06;;;16.53;73.21
63405;BME280;49541;57.840;12.306;2023-07-28T22:38:20;99760.78;;;16.18;74.60
63405;BME280;49541;57.840;12.306;2023-07-28T22:43:20;99754.94;;;15.79;76.91
63405;BME280;49541;57.840;12.306;2023-07-28T22:48:21;99767.28;;;15.73;77.94
63405;BME280;49541;57.840;12.306;2023-07-28T22:53:21;99774.66;;;15.86;76.50
63405;BME280;49541;57.840;12.306;2023-07-28T22:58:21;99775.47;;;15.42;78.85
63405;BME280;49541;57.840;12.306;2023-07-28T23:03:21;99772.84;;;15.04;80.39
63405;BME280;49541;57.840;12.306;2023-07-28T23:08:22;99773.94;;;15.77;80.30
63405;BME280;49541;57.840;12.306;2023-07-28T23:13:22;99767.75;;;16.13;77.90
63405;BME280;49541;57.840;12.306;2023-07-28T23:18:22;99768.25;;;15.87;79.08
63405;BME280;49541;57.840;12.306;2023-07-28T23:23:22;99771.03;;;15.79;79.87
63405;BME280;49541;57.840;12.306;2023-07-28T23:28:22;99772.69;;;15.50;80.55
63405;BME280;49541;57.840;12.306;2023-07-28T23:33:23;99769.00;;;15.81;79.53
63405;BME280;49541;57.840;12.306;2023-07-28T23:38:23;99773.59;;;15.57;81.27
63405;BME280;49541;57.840;12.306;2023-07-28T23:43:23;99775.66;;;15.25;82.46
63405;BME280;49541;57.840;12.306;2023-07-28T23:48:32;99772.06;;;15.92;79.60
63405;BME280;49541;57.840;12.306;2023-07-28T23:53:32;99754.84;;;15.72;80.43
63405;BME280;49541;57.840;12.306;2023-07-28T23:58:32;99767.50;;;15.48;80.94
